Superfast Xi — SYCF — position and weather

sailwx.info

Track history (hours):
 
Tides and Currents Weather Stations Pressure Air Temp Water Temp Dewpoint Dewpoint Depression Visibility Wind Speed Wind Dir Waves Ship Positions

Superfast Xi

Last reported at 2017-Aug-18 09:06 UTC. Time now 2017-Aug-18 10:47 UTC.
Position N 43°37' E 013°30'.

Length 200 m; draft 6.3 m.

Type: Passenger vessel. MMSI: 239918000.

Date/timePositionNaut miles runAvg speedWind from/ knotsBaromVisibWave heightAir tempDewpointWater temp
2017-Aug-18 09:06N 43°37' E 013°30'1 8.3
2017-Aug-18 09:00N 43°38' E 013°29'2517.4
2017-Aug-18 07:35N 43°33' E 014°03'227.3
2017-Aug-18 07:29N 43°32' E 014°06'20727.4
2017-Aug-17 23:56N 41°24' E 017°47'2326.8
2017-Aug-17 23:05N 41°08' E 018°09'224.4
2017-Aug-17 23:00N 41°07' E 018°11'1224.2
2017-Aug-17 22:30N 40°59' E 018°22'1426.9
2017-Aug-17 21:58N 40°49' E 018°36'1327.4
2017-Aug-17 21:30N 40°40' E 018°48'1427.6
2017-Aug-17 21:00N 40°30' E 019°01'61 3.2
2017-Aug-17 01:41N 39°47' E 019°59'420.0
2017-Aug-17 01:29N 39°50' E 019°56'1225.4
2017-Aug-17 01:00N 39°58' E 019°43'2127.6
2017-Aug-17 00:14N 40°11' E 019°22'627.7
2017-Aug-17 00:00N 40°16' E 019°15'1927.7
2017-Aug-16 23:20N 40°28' E 018°56'5327.7
2017-Aug-16 21:25N 41°01' E 018°03'17828.2
2017-Aug-16 15:06N 42°57' E 015°01'328.4
2017-Aug-16 15:00N 42°59' E 014°58'3128.2
2017-Aug-16 13:54N 43°19' E 014°26'1728.0
2017-Aug-16 13:18N 43°29' E 014°08'2920.6
2017-Aug-16 11:54N 43°39' E 013°30'333 9.3
2017-Aug-15 00:14N 40°12' E 019°21'7027.9
2017-Aug-14 21:44N 40°54' E 018°08'  
2017-Aug-11 06:34N 38°32' E 020°36'128.1
2017-Aug-11 06:31N 38°32' E 020°34'9618.7
2017-Aug-11 01:23N 39°58' E 019°40'1627.9
2017-Aug-11 00:50N 40°08' E 019°24'3228.2
2017-Aug-10 23:42N 40°27' E 018°50'528.6
2017-Aug-10 23:31N 40°30' E 018°45'1428.2
2017-Aug-10 23:00N 40°39' E 018°30'1428.6
2017-Aug-10 22:31N 40°48' E 018°16'21628.0
2017-Aug-10 14:49N 43°11' E 014°38'927.9
2017-Aug-10 14:31N 43°16' E 014°29'1428.0
2017-Aug-10 14:00N 43°25' E 014°14'1427.8
2017-Aug-10 13:31N 43°34' E 013°59'1325.3
2017-Aug-10 13:00N 43°41' E 013°45'918.4
2017-Aug-10 12:30N 43°39' E 013°33'3 0.9
2017-Aug-10 09:14N 43°38' E 013°30'813.0
2017-Aug-10 08:36N 43°42' E 013°39'217.9
2017-Aug-10 08:30N 43°42' E 013°41'1223.5
2017-Aug-10 08:00N 43°37' E 013°56'3028.6
2017-Aug-10 06:57N 43°20' E 014°30'1428.8
2017-Aug-10 06:27N 43°13' E 014°47'7528.4
2017-Aug-10 03:48N 42°31' E 016°12'9828.4
2017-Aug-10 00:22N 41°24' E 017°48'3128.3
2017-Aug-09 23:16N 41°02' E 018°18'828.2
2017-Aug-09 23:00N 40°57' E 018°25'1428.2
2017-Aug-09 22:30N 40°47' E 018°38'5128.5
2017-Aug-09 20:42N 40°12' E 019°27'629.0
2017-Aug-09 20:29N 40°08' E 019°33'5 0.3
2017-Aug-09 01:02N 40°06' E 019°26'128.0
2017-Aug-09 01:00N 40°06' E 019°25'1428.1
2017-Aug-09 00:30N 40°14' E 019°11'1428.4
2017-Aug-09 00:01N 40°23' E 018°56'1428.4
2017-Aug-08 23:31N 40°31' E 018°41'1428.3
2017-Aug-08 23:00N 40°40' E 018°26'1428.4
2017-Aug-08 22:30N 40°49' E 018°12'1428.2
2017-Aug-08 22:00N 40°59' E 017°57'21327.9
2017-Aug-08 14:21N 43°21' E 014°23'  
Track history (hours):
 
Tides and Currents Weather Stations Pressure Air Temp Water Temp Dewpoint Dewpoint Depression Visibility Wind Speed Wind Dir Waves Ship Positions

Superfast Xi

Last reported at 2017-Aug-18 09:06 UTC. Time now 2017-Aug-18 10:47 UTC.
Position N 43°37' E 013°30'.

Length 200 m; draft 6.3 m.

Type: Passenger vessel. MMSI: 239918000.

Date/timePositionNaut miles runAvg speedWind from/ knotsBaromVisibWave heightAir tempDewpointWater temp
2017-Aug-18 09:06N 43°37' E 013°30'1 8.3
2017-Aug-18 09:00N 43°38' E 013°29'2517.4
2017-Aug-18 07:35N 43°33' E 014°03'227.3
2017-Aug-18 07:29N 43°32' E 014°06'20727.4
2017-Aug-17 23:56N 41°24' E 017°47'2326.8
2017-Aug-17 23:05N 41°08' E 018°09'224.4
2017-Aug-17 23:00N 41°07' E 018°11'1224.2
2017-Aug-17 22:30N 40°59' E 018°22'1426.9
2017-Aug-17 21:58N 40°49' E 018°36'1327.4
2017-Aug-17 21:30N 40°40' E 018°48'1427.6
2017-Aug-17 21:00N 40°30' E 019°01'61 3.2
2017-Aug-17 01:41N 39°47' E 019°59'420.0
2017-Aug-17 01:29N 39°50' E 019°56'1225.4
2017-Aug-17 01:00N 39°58' E 019°43'2127.6
2017-Aug-17 00:14N 40°11' E 019°22'627.7
2017-Aug-17 00:00N 40°16' E 019°15'1927.7
2017-Aug-16 23:20N 40°28' E 018°56'5327.7
2017-Aug-16 21:25N 41°01' E 018°03'17828.2
2017-Aug-16 15:06N 42°57' E 015°01'328.4
2017-Aug-16 15:00N 42°59' E 014°58'3128.2
2017-Aug-16 13:54N 43°19' E 014°26'1728.0
2017-Aug-16 13:18N 43°29' E 014°08'2920.6
2017-Aug-16 11:54N 43°39' E 013°30'333 9.3
2017-Aug-15 00:14N 40°12' E 019°21'7027.9
2017-Aug-14 21:44N 40°54' E 018°08'  
2017-Aug-11 06:34N 38°32' E 020°36'128.1
2017-Aug-11 06:31N 38°32' E 020°34'9618.7
2017-Aug-11 01:23N 39°58' E 019°40'1627.9
2017-Aug-11 00:50N 40°08' E 019°24'3228.2
2017-Aug-10 23:42N 40°27' E 018°50'528.6
2017-Aug-10 23:31N 40°30' E 018°45'1428.2
2017-Aug-10 23:00N 40°39' E 018°30'1428.6
2017-Aug-10 22:31N 40°48' E 018°16'21628.0
2017-Aug-10 14:49N 43°11' E 014°38'927.9
2017-Aug-10 14:31N 43°16' E 014°29'1428.0
2017-Aug-10 14:00N 43°25' E 014°14'1427.8
2017-Aug-10 13:31N 43°34' E 013°59'1325.3
2017-Aug-10 13:00N 43°41' E 013°45'918.4
2017-Aug-10 12:30N 43°39' E 013°33'3 0.9
2017-Aug-10 09:14N 43°38' E 013°30'813.0
2017-Aug-10 08:36N 43°42' E 013°39'217.9
2017-Aug-10 08:30N 43°42' E 013°41'1223.5
2017-Aug-10 08:00N 43°37' E 013°56'3028.6
2017-Aug-10 06:57N 43°20' E 014°30'1428.8
2017-Aug-10 06:27N 43°13' E 014°47'7528.4
2017-Aug-10 03:48N 42°31' E 016°12'9828.4
2017-Aug-10 00:22N 41°24' E 017°48'3128.3
2017-Aug-09 23:16N 41°02' E 018°18'828.2
2017-Aug-09 23:00N 40°57' E 018°25'1428.2
2017-Aug-09 22:30N 40°47' E 018°38'5128.5
2017-Aug-09 20:42N 40°12' E 019°27'629.0
2017-Aug-09 20:29N 40°08' E 019°33'5 0.3
2017-Aug-09 01:02N 40°06' E 019°26'128.0
2017-Aug-09 01:00N 40°06' E 019°25'1428.1
2017-Aug-09 00:30N 40°14' E 019°11'1428.4
2017-Aug-09 00:01N 40°23' E 018°56'1428.4
2017-Aug-08 23:31N 40°31' E 018°41'1428.3
2017-Aug-08 23:00N 40°40' E 018°26'1428.4
2017-Aug-08 22:30N 40°49' E 018°12'1428.2
2017-Aug-08 22:00N 40°59' E 017°57'21327.9
2017-Aug-08 14:21N 43°21' E 014°23'  

Dump ship's entire track history